Time;durP1;ratioP1;P1;durP2;ratioP2;P2;SDS_P1;SDS_P2;PMS_P1;PMS_P2;Temp;Humidity;BMP_temperature;BMP_pressure;BME280_temperature;BME280_humidity;BME280_pressure;Samples;Min_cycle;Max_cycle;Signal;HPM_P1;HPM_P2
2022/03/05 00:01:14;;;;;;;76.03;37.85;;;;;;;-2.00;96.21;92840.09;4934026;29;20055;-85
2022/03/05 00:03:41;;;;;;;71.78;39.05;;;;;;;-2.11;96.15;92820.94;4937835;29;20057;-85
2022/03/05 00:06:08;;;;;;;86.22;44.10;;;;;;;-1.98;97.38;92838.22;4943370;29;20044;-84
2022/03/05 00:08:35;;;;;;;69.28;38.10;;;;;;;-2.02;95.98;92835.19;4939684;29;20047;-85
2022/03/05 00:11:02;;;;;;;73.65;39.05;;;;;;;-2.05;96.42;92832.94;4941701;29;20095;-85
2022/03/05 00:13:28;;;;;;;76.63;39.50;;;;;;;-2.13;93.98;92826.09;4941070;29;20055;-85
2022/03/05 00:15:55;;;;;;;97.13;46.97;;;;;;;-2.12;95.57;92835.25;4933764;29;20566;-85
2022/03/05 00:18:23;;;;;;;63.92;35.00;;;;;;;-2.12;93.82;92831.94;4933801;29;20059;-85
2022/03/05 00:20:51;;;;;;;66.78;35.03;;;;;;;-2.37;94.71;92786.41;4934001;29;20067;-85
2022/03/05 00:23:18;;;;;;;82.95;43.13;;;;;;;-2.13;96.14;92832.88;4933639;29;20051;-85
2022/03/05 00:25:45;;;;;;;66.00;34.60;;;;;;;-2.27;95.72;92822.34;4933776;29;20058;-85
2022/03/05 00:28:12;;;;;;;63.67;34.35;;;;;;;-2.15;96.42;92830.50;4933641;29;20060;-85
2022/03/05 00:30:39;;;;;;;64.78;34.55;;;;;;;-2.24;96.61;92831.34;4933665;29;20055;-85
2022/03/05 00:33:06;;;;;;;62.90;34.88;;;;;;;-2.28;97.64;92831.63;4933605;29;20099;-85
2022/03/05 00:35:34;;;;;;;58.83;33.15;;;;;;;-2.52;97.47;92799.44;4933898;29;20051;-85
2022/03/05 00:38:01;;;;;;;67.75;35.80;;;;;;;-2.48;97.19;92810.81;4933508;29;20048;-85
2022/03/05 00:40:28;;;;;;;63.10;34.10;;;;;;;-2.37;95.73;92836.72;4933545;29;20063;-84
2022/03/05 00:42:55;;;;;;;73.93;37.70;;;;;;;-2.39;97.47;92831.81;4933748;29;20052;-85
2022/03/05 00:45:22;;;;;;;72.63;36.35;;;;;;;-2.44;97.21;92833.97;4933488;29;20055;-85
2022/03/05 00:47:49;;;;;;;82.68;43.45;;;;;;;-2.51;98.09;92817.84;4933537;29;20435;-85
2022/03/05 00:50:16;;;;;;;67.18;36.25;;;;;;;-2.42;97.00;92839.63;4933466;29;20108;-85
2022/03/05 00:52:44;;;;;;;82.30;40.65;;;;;;;-2.43;97.96;92828.78;4933706;29;20047;-85
2022/03/05 00:55:11;;;;;;;72.90;38.05;;;;;;;-2.50;96.33;92824.47;4933436;29;20182;-85
2022/03/05 00:57:38;;;;;;;78.60;39.97;;;;;;;-2.53;96.98;92832.28;4933407;29;20455;-85
2022/03/05 01:00:06;;;;;;;104.00;51.58;;;;;;;-2.56;98.21;92825.78;4937000;29;20055;-86
2022/03/05 01:02:33;;;;;;;87.20;45.15;;;;;;;-2.70;96.98;92815.28;4937152;29;20056;-85
2022/03/05 01:05:00;;;;;;;83.57;41.17;;;;;;;-2.63;98.66;92824.78;4937337;29;20059;-85
2022/03/05 01:07:27;;;;;;;94.53;47.78;;;;;;;-2.77;98.48;92829.34;4937327;29;20055;-86
2022/03/05 01:09:55;;;;;;;73.80;38.20;;;;;;;-2.93;96.96;92829.91;4937050;29;20094;-85
2022/03/05 01:12:22;;;;;;;76.22;39.00;;;;;;;-2.92;97.94;92816.41;4937193;29;20048;-85
2022/03/05 01:14:51;;;;;;;77.60;39.88;;;;;;;-2.76;99.46;92815.84;4956180;28;20078;-86
2022/03/05 01:17:19;;;;;;;92.53;46.10;;;;;;;-2.64;99.71;92820.69;4955974;28;20043;-85
2022/03/05 01:19:46;;;;;;;99.90;50.60;;;;;;;-2.72;100.00;92807.06;4955829;28;20047;-85
2022/03/05 01:22:13;;;;;;;96.03;44.65;;;;;;;-2.57;99.89;92821.69;4956054;28;20101;-85
2022/03/05 01:24:40;;;;;;;84.45;43.70;;;;;;;-2.51;100.00;92813.59;4956115;28;20050;-85
2022/03/05 01:27:09;;;;;;;77.40;41.40;;;;;;;-2.59;99.45;92816.03;4955994;28;20051;-86
2022/03/05 01:29:36;;;;;;;92.18;45.80;;;;;;;-2.63;98.71;92819.75;4955759;28;20098;-86
2022/03/05 01:32:04;;;;;;;81.68;44.05;;;;;;;-2.48;100.00;92818.38;4956031;28;20047;-86
2022/03/05 01:34:31;;;;;;;90.05;46.83;;;;;;;-2.61;100.00;92798.56;4955774;28;20577;-86
2022/03/05 01:36:58;;;;;;;85.45;45.30;;;;;;;-2.48;99.76;92812.53;4956077;28;20118;-86
2022/03/05 01:39:24;;;;;;;114.38;56.13;;;;;;;-2.43;100.00;92813.69;4955666;28;20062;-86
2022/03/05 01:41:55;;;;;;;519.80;229.35;;;;;;;-2.55;100.00;92815.59;4955553;28;20430;-86
2022/03/05 01:44:24;;;;;;;155.02;68.15;;;;;;;-2.42;100.00;92811.97;4955507;28;20043;-86
2022/03/05 01:46:51;;;;;;;142.85;66.72;;;;;;;-2.36;100.00;92810.63;4955742;28;20072;-86
2022/03/05 01:49:18;;;;;;;128.18;60.70;;;;;;;-2.36;100.00;92800.56;4955512;28;20047;-86
2022/03/05 01:51:45;;;;;;;106.75;53.22;;;;;;;-2.31;100.00;92790.88;4955399;28;20055;-86
2022/03/05 01:54:13;;;;;;;101.78;50.80;;;;;;;-2.15;100.00;92808.66;4955460;28;20067;-86
2022/03/05 01:56:43;;;;;;;89.40;46.25;;;;;;;-2.00;100.00;92815.69;4955214;28;20176;-86
2022/03/05 01:59:10;;;;;;;90.40;46.45;;;;;;;-1.98;100.00;92816.38;4955496;28;20063;-86
2022/03/05 02:01:38;;;;;;;87.80;45.17;;;;;;;-1.93;100.00;92815.91;4955349;28;20102;-86
2022/03/05 02:04:06;;;;;;;89.25;45.58;;;;;;;-1.88;100.00;92817.09;4955397;28;20052;-86
2022/03/05 02:06:33;;;;;;;82.43;46.03;;;;;;;-1.89;100.00;92797.09;4955287;28;20051;-86
2022/03/05 02:09:00;;;;;;;88.75;45.97;;;;;;;-1.80;100.00;92811.31;4954863;28;20055;-86
2022/03/05 02:11:27;;;;;;;82.93;42.17;;;;;;;-1.77;100.00;92808.50;4954990;28;20047;-86
2022/03/05 02:13:54;;;;;;;86.82;44.70;;;;;;;-1.75;100.00;92799.06;4955145;28;20055;-86
2022/03/05 02:16:22;;;;;;;87.22;45.03;;;;;;;-1.77;99.71;92807.72;4955124;28;20130;-86
2022/03/05 02:18:52;;;;;;;88.63;42.75;;;;;;;-1.88;100.00;92774.28;4955148;28;20055;-86
2022/03/05 02:21:23;;;;;;;77.93;42.95;;;;;;;-1.67;100.00;92795.06;4954961;28;20106;-86
2022/03/05 02:23:51;;;;;;;81.10;43.08;;;;;;;-1.69;100.00;92792.69;4954796;28;20078;-86
2022/03/05 02:26:18;;;;;;;91.75;41.63;;;;;;;-1.58;100.00;92798.44;4955092;28;20047;-86
2022/03/05 02:28:46;;;;;;;84.30;41.35;;;;;;;-1.55;100.00;92800.66;4955184;28;20055;-86
2022/03/05 02:31:13;;;;;;;76.22;39.00;;;;;;;-1.64;100.00;92782.97;4954899;28;20134;-86
2022/03/05 02:33:41;;;;;;;76.22;40.15;;;;;;;-1.49;100.00;92800.88;4954829;28;20043;-86
2022/03/05 02:36:08;;;;;;;75.43;38.90;;;;;;;-1.50;99.94;92804.31;4954631;28;20043;-86
2022/03/05 02:38:36;;;;;;;70.30;37.28;;;;;;;-1.45;100.00;92798.84;4954521;28;20055;-86
2022/03/05 02:41:03;;;;;;;66.75;35.63;;;;;;;-1.49;99.50;92795.81;4954682;28;20051;-86
2022/03/05 02:43:30;;;;;;;67.32;37.15;;;;;;;-1.42;99.18;92803.59;4954549;28;20815;-86
2022/03/05 02:45:57;;;;;;;65.20;37.15;;;;;;;-1.40;99.48;92803.44;4954673;28;20102;-86
2022/03/05 02:48:25;;;;;;;69.03;36.00;;;;;;;-1.41;99.91;92800.13;4954440;28;20062;-86
2022/03/05 02:50:52;;;;;;;66.03;35.50;;;;;;;-1.38;99.18;92801.56;4954267;28;20059;-86
2022/03/05 02:53:19;;;;;;;74.55;38.97;;;;;;;-1.49;99.14;92782.44;4954368;28;20387;-86
2022/03/05 02:55:48;;;;;;;76.78;41.65;;;;;;;-1.36;98.46;92810.56;4954489;28;20059;-86
2022/03/05 02:58:17;;;;;;;78.95;41.92;;;;;;;-1.33;98.03;92812.00;4954245;28;20519;-86
2022/03/05 03:00:44;;;;;;;82.90;44.90;;;;;;;-1.39;97.65;92807.56;4954104;28;20410;-86
2022/03/05 03:03:11;;;;;;;80.68;42.63;;;;;;;-1.46;97.73;92791.41;4954225;28;20055;-86
2022/03/05 03:05:38;;;;;;;68.85;38.30;;;;;;;-1.40;97.78;92808.47;4953939;28;20111;-87
2022/03/05 03:08:06;;;;;;;72.93;38.40;;;;;;;-1.48;97.85;92804.19;4954298;28;20055;-87
2022/03/05 03:10:32;;;;;;;63.00;33.88;;;;;;;-1.51;98.40;92812.03;4954071;28;20062;-86
2022/03/05 03:13:01;;;;;;;67.82;36.67;;;;;;;-1.50;98.82;92809.38;4953724;28;20055;-86
2022/03/05 03:15:30;;;;;;;68.45;35.92;;;;;;;-1.68;99.49;92776.63;4953894;28;20051;-86
2022/03/05 03:17:57;;;;;;;66.18;34.58;;;;;;;-1.54;100.00;92800.50;4953931;28;20047;-86
2022/03/05 03:20:26;;;;;;;63.42;33.47;;;;;;;-1.42;100.00;92810.34;4953562;28;20043;-86
2022/03/05 03:22:53;;;;;;;68.65;34.47;;;;;;;-1.40;100.00;92800.91;4953320;28;20065;-86
2022/03/05 03:25:20;;;;;;;60.60;33.72;;;;;;;-1.57;100.00;92783.16;4953649;28;20047;-86
2022/03/05 03:27:47;;;;;;;61.33;35.53;;;;;;;-1.47;100.00;92805.75;4953693;28;20090;-86
2022/03/05 03:30:18;;;;;;;71.82;37.60;;;;;;;-1.49;100.00;92807.63;4953719;28;20062;-86
2022/03/05 03:32:47;;;;;;;67.68;38.20;;;;;;;-1.49;100.00;92808.41;4953565;28;20055;-86
2022/03/05 03:35:15;;;;;;;65.30;35.95;;;;;;;-1.44;100.00;92814.75;4953752;28;20418;-86
2022/03/05 03:37:43;;;;;;;64.07;34.17;;;;;;;-1.38;100.00;92812.41;4953436;28;20047;-86
2022/03/05 03:40:13;;;;;;;64.43;36.35;;;;;;;-1.42;100.00;92806.13;4953592;28;20047;-86
2022/03/05 03:42:42;;;;;;;68.88;36.33;;;;;;;-1.57;100.00;92798.28;4953502;28;20410;-87
2022/03/05 03:45:11;;;;;;;74.03;39.20;;;;;;;-2.07;99.58;92727.41;4953278;28;20080;-86
2022/03/05 03:47:40;;;;;;;71.07;35.92;;;;;;;-1.52;98.91;92801.16;4953345;28;20062;-86
2022/03/05 03:50:09;;;;;;;77.78;38.67;;;;;;;-1.56;99.21;92786.47;4953399;28;20047;-86
2022/03/05 03:52:36;;;;;;;67.43;36.25;;;;;;;-1.42;98.53;92813.69;4953293;28;20454;-86
2022/03/05 03:55:08;;;;;;;73.57;37.42;;;;;;;-1.40;99.73;92813.50;4953290;28;20055;-86
2022/03/05 03:57:35;;;;;;;72.95;38.00;;;;;;;-1.64;99.55;92779.66;4953093;28;20043;-86
2022/03/05 04:00:04;;;;;;;72.10;37.20;;;;;;;-1.53;100.00;92812.16;4953390;28;20055;-87
2022/03/05 04:02:31;;;;;;;72.03;36.03;;;;;;;-1.62;99.66;92810.53;4953098;28;20062;-88
2022/03/05 04:04:59;;;;;;;71.15;37.03;;;;;;;-1.72;99.20;92805.56;4953402;28;20055;-87
2022/03/05 04:10:10;;;;;;;76.25;38.25;;;;;;;-1.80;99.95;92810.53;4952949;28;20066;-87
2022/03/05 04:12:37;;;;;;;78.10;37.95;;;;;;;-1.76;100.00;92811.84;4952992;28;20081;-87
2022/03/05 04:15:05;;;;;;;71.40;39.47;;;;;;;-2.00;100.00;92784.72;4953171;28;20049;-87
2022/03/05 04:17:35;;;;;;;77.88;39.05;;;;;;;-1.80;100.00;92820.59;4953249;28;20122;-87
2022/03/05 04:20:04;;;;;;;74.22;39.72;;;;;;;-1.84;100.00;92814.28;4952913;28;20490;-88
2022/03/05 04:22:31;;;;;;;76.05;38.33;;;;;;;-1.94;100.00;92804.28;4952751;28;20498;-88
2022/03/05 04:24:58;;;;;;;77.45;40.22;;;;;;;-2.00;100.00;92804.84;4953048;28;20055;-88
2022/03/05 04:27:24;;;;;;;72.50;40.50;;;;;;;-1.99;100.00;92807.19;4952988;28;20107;-88
2022/03/05 04:29:51;;;;;;;77.40;42.05;;;;;;;-1.94;100.00;92807.56;4952770;28;20055;-88
2022/03/05 04:32:18;;;;;;;83.95;39.55;;;;;;;-2.03;100.00;92809.22;4952818;28;20043;-88
2022/03/05 04:34:45;;;;;;;68.80;38.47;;;;;;;-2.04;100.00;92812.66;4952821;28;20486;-88
2022/03/05 04:37:13;;;;;;;71.85;36.17;;;;;;;-2.12;100.00;92804.25;4952514;28;20055;-88
2022/03/05 04:39:40;;;;;;;70.35;38.47;;;;;;;-2.31;100.00;92785.84;4952652;28;20047;-88
2022/03/05 04:42:10;;;;;;;77.80;42.75;;;;;;;-2.30;100.00;92820.91;4952574;28;20055;-88
2022/03/05 04:44:37;;;;;;;75.78;40.00;;;;;;;-2.39;100.00;92801.63;4952714;28;20106;-88
2022/03/05 04:47:04;;;;;;;71.32;39.25;;;;;;;-2.22;100.00;92822.72;4952694;28;20055;-88
2022/03/05 04:49:31;;;;;;;70.95;38.72;;;;;;;-2.21;100.00;92811.75;4952613;28;20407;-88
2022/03/05 04:51:58;;;;;;;68.82;38.85;;;;;;;-2.08;100.00;92826.47;4952393;28;20047;-88
2022/03/05 04:54:29;;;;;;;64.75;35.88;;;;;;;-2.05;100.00;92827.91;4952542;28;20450;-88
2022/03/05 04:56:56;;;;;;;65.97;33.58;;;;;;;-2.31;100.00;92781.59;4952507;28;20078;-88
2022/03/05 04:59:26;;;;;;;66.82;36.30;;;;;;;-2.18;100.00;92805.63;4952778;28;20066;-88
2022/03/05 05:01:52;;;;;;;69.75;37.28;;;;;;;-2.32;100.00;92789.28;4952441;28;20138;-88
2022/03/05 05:04:19;;;;;;;101.93;57.03;;;;;;;-2.23;100.00;92826.16;4951972;28;20047;-88
2022/03/05 05:06:46;;;;;;;71.45;39.67;;;;;;;-2.19;100.00;92824.16;4951438;28;20491;-89
2022/03/05 05:09:13;;;;;;;79.05;41.20;;;;;;;-2.28;100.00;92820.75;4949211;28;20055;-89
2022/03/05 05:11:41;;;;;;;75.35;44.22;;;;;;;-2.23;100.00;92825.38;4951833;28;20047;-87
2022/03/05 05:14:08;;;;;;;73.70;39.60;;;;;;;-2.04;100.00;92834.56;4951643;28;20106;-88
2022/03/05 05:16:38;;;;;;;65.97;35.83;;;;;;;-1.93;100.00;92838.56;4951695;28;20063;-89
2022/03/05 05:21:48;;;;;;;65.05;35.55;;;;;;;-1.80;100.00;92860.91;4951979;28;20116;-88
2022/03/05 05:24:15;;;;;;;78.68;41.28;;;;;;;-1.75;100.00;92861.25;4949372;28;20472;-89
2022/03/05 05:26:44;;;;;;;83.10;45.17;;;;;;;-1.89;100.00;92844.91;4966257;28;20051;-89
2022/03/05 05:29:11;;;;;;;78.13;42.92;;;;;;;-1.66;100.00;92874.72;4962148;28;20051;-89
2022/03/05 05:31:37;;;;;;;79.30;41.75;;;;;;;-1.65;100.00;92877.09;4971781;28;20043;-89
2022/03/05 05:34:04;;;;;;;93.50;45.67;;;;;;;-1.58;100.00;92872.25;4971448;28;20098;-88
2022/03/05 05:36:31;;;;;;;84.18;46.60;;;;;;;-1.53;100.00;92866.81;4971590;28;20053;-88
2022/03/05 05:39:01;;;;;;;73.10;39.85;;;;;;;-1.58;98.61;92871.47;4971585;28;20051;-89
2022/03/05 05:41:27;;;;;;;77.18;41.00;;;;;;;-1.69;98.72;92864.91;4967217;28;20125;-88
2022/03/05 05:43:55;;;;;;;78.93;40.92;;;;;;;-1.79;100.00;92865.00;4971276;28;20046;-90
2022/03/05 05:46:23;;;;;;;75.40;38.45;;;;;;;-1.74;99.59;92870.38;4974827;28;20532;-89
2022/03/05 05:48:50;;;;;;;67.35;36.67;;;;;;;-1.68;98.47;92869.00;4968859;28;20047;-89
2022/03/05 05:51:19;;;;;;;66.95;36.30;;;;;;;-1.58;98.27;92884.84;4955680;29;20058;-89
2022/03/05 05:53:46;;;;;;;63.95;36.90;;;;;;;-1.41;99.29;92880.75;4955386;29;20537;-89
2022/03/05 05:56:12;;;;;;;68.88;36.33;;;;;;;-1.30;99.19;92884.00;4955839;29;20082;-89
2022/03/05 05:58:39;;;;;;;69.75;38.95;;;;;;;-1.17;98.57;92883.63;4955488;28;20051;-89
2022/03/05 06:01:07;;;;;;;75.40;42.25;;;;;;;-1.04;98.17;92893.31;4955265;28;20055;-89
2022/03/05 06:03:34;;;;;;;83.25;44.03;;;;;;;-0.98;97.16;92897.75;4955539;28;20497;-87
2022/03/05 06:06:01;;;;;;;85.03;46.15;;;;;;;-0.84;96.55;92897.25;4955293;28;20106;-87
2022/03/05 06:08:28;;;;;;;77.35;43.15;;;;;;;-1.02;92.71;92899.00;4955282;28;20051;-89
2022/03/05 06:10:57;;;;;;;77.68;38.45;;;;;;;-1.08;94.01;92898.66;4953350;28;20382;-89
2022/03/05 06:13:23;;;;;;;73.03;40.47;;;;;;;-1.21;92.90;92883.09;4955153;29;20098;-89
2022/03/05 06:15:51;;;;;;;72.80;38.95;;;;;;;-1.25;94.31;92900.25;4954999;29;20447;-89
2022/03/05 06:18:23;;;;;;;64.40;37.58;;;;;;;-1.09;94.66;92912.22;4966931;28;20050;-91
2022/03/05 06:20:58;;;;;;;63.83;37.15;;;;;;;-1.02;93.59;92912.41;4974334;28;20061;-90
2022/03/05 06:23:25;;;;;;;59.78;31.85;;;;;;;-1.14;92.62;92909.34;4974015;28;20058;-90
2022/03/05 06:25:52;;;;;;;61.08;36.50;;;;;;;-1.10;93.19;92913.13;4974048;28;20050;-89
2022/03/05 06:28:19;;;;;;;72.28;42.22;;;;;;;-1.18;94.87;92903.00;4974286;28;20051;-89
2022/03/05 06:30:46;;;;;;;66.72;37.05;;;;;;;-1.40;94.30;92861.38;4973956;28;20042;-90
2022/03/05 06:33:13;;;;;;;73.57;38.35;;;;;;;-1.09;93.32;92901.31;4974011;28;20105;-89
2022/03/05 06:35:43;;;;;;;60.92;33.55;;;;;;;-1.06;92.22;92915.38;4959450;28;20095;-88
2022/03/05 06:38:14;;;;;;;55.72;34.28;;;;;;;-1.02;92.96;92906.56;4952505;28;20150;-89
2022/03/05 06:40:42;;;;;;;58.90;33.45;;;;;;;-0.73;92.26;92915.59;4954696;28;20047;-86
2022/03/05 06:43:08;;;;;;;73.75;41.03;;;;;;;-0.77;91.13;92891.59;4954642;28;20063;-87
2022/03/05 06:45:36;;;;;;;58.53;34.65;;;;;;;-0.68;90.13;92911.69;4954514;28;20143;-87
2022/03/05 06:48:04;;;;;;;67.70;39.72;;;;;;;-0.66;90.39;92914.06;4954481;28;20478;-86
2022/03/05 06:50:31;;;;;;;69.80;39.35;;;;;;;-1.18;93.05;92803.88;4954378;28;20074;-86
2022/03/05 06:53:01;;;;;;;56.97;34.30;;;;;;;-0.30;90.81;92916.47;4954299;28;20052;-87
2022/03/05 06:55:28;;;;;;;52.63;32.50;;;;;;;-0.34;87.74;92906.81;4953899;28;20059;-87
2022/03/05 06:57:54;;;;;;;68.20;38.83;;;;;;;-0.30;87.24;92908.09;4954057;28;20051;-87
2022/03/05 07:00:22;;;;;;;56.67;32.55;;;;;;;-0.36;86.56;92886.00;4954206;28;20047;-86
2022/03/05 07:02:48;;;;;;;43.95;27.67;;;;;;;-0.13;85.95;92906.44;4954130;28;20055;-86
2022/03/05 07:05:16;;;;;;;50.83;30.10;;;;;;;-0.20;86.05;92907.97;4954033;28;20058;-86
2022/03/05 07:07:53;;;;;;;;;;;;;;;;;;;;;
2022/03/05 07:10:33;;;;;;;48.92;30.25;;;;;;;-0.04;86.11;92899.69;4953823;28;20051;-90
2022/03/05 07:13:01;;;;;;;59.60;34.22;;;;;;;0.09;84.78;92905.09;4953933;28;20132;-87
2022/03/05 07:15:28;;;;;;;58.25;32.72;;;;;;;-0.13;84.86;92878.69;4954265;28;20058;-88
2022/03/05 07:17:55;;;;;;;53.45;32.97;;;;;;;-0.01;85.96;92900.19;4962719;28;20047;-87
2022/03/05 07:20:22;;;;;;;49.13;29.75;;;;;;;-0.20;86.08;92883.53;4972823;28;20058;-88
2022/03/05 07:22:49;;;;;;;42.17;28.80;;;;;;;0.12;86.39;92881.28;4972880;28;20062;-88
2022/03/05 07:25:16;;;;;;;47.58;27.02;;;;;;;0.32;84.36;92888.59;4973064;28;20046;-88
2022/03/05 07:27:45;;;;;;;50.92;29.98;;;;;;;0.35;81.32;92871.38;4972916;28;20486;-88
2022/03/05 07:30:12;;;;;;;51.00;30.85;;;;;;;0.41;81.46;92866.66;4972767;28;20493;-88
2022/03/05 07:32:49;;;;;;;;;;;;;;;;;;;;;
2022/03/05 07:35:16;;;;;;;44.17;25.45;;;;;;;0.71;80.34;92882.97;4969430;28;20057;-87
2022/03/05 07:37:43;;;;;;;44.42;24.98;;;;;;;0.84;79.64;92874.09;4972583;28;20559;-87
2022/03/05 07:40:11;;;;;;;40.33;23.88;;;;;;;0.89;74.75;92884.53;4972694;28;20050;-86
2022/03/05 07:42:38;;;;;;;49.65;27.90;;;;;;;1.14;78.90;92880.25;4972491;28;20046;-87
2022/03/05 07:45:08;;;;;;;42.78;25.92;;;;;;;1.20;81.14;92851.78;4960199;28;20417;-87
2022/03/05 07:47:35;;;;;;;42.83;24.17;;;;;;;1.53;79.76;92880.50;4953491;29;20117;-87
2022/03/05 07:50:02;;;;;;;45.97;27.83;;;;;;;1.62;73.91;92883.81;4953404;29;20134;-87
2022/03/05 07:52:33;;;;;;;39.88;23.85;;;;;;;1.39;72.37;92867.53;4953475;29;20453;-87
2022/03/05 07:55:00;;;;;;;39.05;24.10;;;;;;;1.50;76.27;92873.22;4953193;29;20055;-87
2022/03/05 07:57:27;;;;;;;38.35;23.17;;;;;;;1.60;73.08;92883.97;4953197;29;20051;-87
2022/03/05 07:59:59;;;;;;;43.53;27.48;;;;;;;1.52;76.96;92861.97;4953376;29;20058;-86
2022/03/05 08:02:46;;;;;;;40.08;24.48;;;;;;;1.75;74.47;92865.56;4953226;29;20047;-87
2022/03/05 08:05:13;;;;;;;37.80;23.42;;;;;;;2.00;77.40;92878.91;4953444;29;20051;-87
2022/03/05 08:07:42;;;;;;;33.83;21.58;;;;;;;2.29;75.05;92890.19;4952689;28;20051;-86
2022/03/05 08:10:10;;;;;;;32.33;20.05;;;;;;;2.46;71.59;92888.31;4953326;29;20043;-86
2022/03/05 08:12:38;;;;;;;31.48;20.15;;;;;;;2.67;71.29;92869.19;4953205;29;20051;-86
2022/03/05 08:15:06;;;;;;;30.92;20.08;;;;;;;2.50;69.30;92879.44;4953061;29;20458;-86
2022/03/05 08:17:35;;;;;;;38.55;22.55;;;;;;;2.41;69.21;92893.13;4958682;28;20110;-87
2022/03/05 08:20:04;;;;;;;30.17;18.42;;;;;;;1.59;71.48;92844.41;4972086;28;20070;-88
2022/03/05 08:22:31;;;;;;;28.60;18.75;;;;;;;2.11;73.93;92893.75;4972415;28;20497;-85
2022/03/05 08:24:58;;;;;;;29.33;18.70;;;;;;;2.51;75.61;92897.97;4972318;28;20053;-86
2022/03/05 08:27:25;;;;;;;29.55;18.95;;;;;;;2.74;71.27;92892.13;4972057;28;20423;-87
2022/03/05 08:29:52;;;;;;;31.25;19.92;;;;;;;2.71;70.34;92889.91;4972082;28;20046;-86
2022/03/05 08:32:20;;;;;;;28.73;18.85;;;;;;;2.69;70.04;92856.34;4971907;28;20055;-87
2022/03/05 08:34:58;;;;;;;;;;;;;;;;;;;;;
2022/03/05 08:37:27;;;;;;;30.95;19.23;;;;;;;3.32;72.94;92895.00;4970356;28;20505;-86
2022/03/05 08:39:54;;;;;;;34.67;18.75;;;;;;;3.58;65.86;92893.81;4966005;28;20043;-87
2022/03/05 08:42:22;;;;;;;33.60;18.70;;;;;;;3.76;65.61;92894.41;4952115;28;20051;-87
2022/03/05 08:44:50;;;;;;;28.52;18.00;;;;;;;3.80;64.86;92893.88;4952515;28;20082;-88
2022/03/05 08:47:20;;;;;;;28.23;17.50;;;;;;;3.94;63.27;92888.97;4952351;28;20055;-87
2022/03/05 08:49:50;;;;;;;32.78;20.42;;;;;;;3.80;63.48;92883.72;4952692;28;20059;-87
2022/03/05 08:52:16;;;;;;;29.02;19.17;;;;;;;3.51;65.50;92885.28;4952533;28;20058;-87
2022/03/05 08:54:48;;;;;;;33.75;21.92;;;;;;;3.19;65.48;92884.63;4952298;28;20055;-87
2022/03/05 08:57:30;;;;;;;;;;;;;;;;;;;;;
2022/03/05 08:59:57;;;;;;;30.98;20.58;;;;;;;3.36;68.30;92890.38;4948951;28;20043;-88
2022/03/05 09:02:24;;;;;;;29.80;19.15;;;;;;;3.58;69.87;92890.47;4952316;28;20059;-88
2022/03/05 09:05:07;;;;;;;;;;;;;;;;;;;;;
2022/03/05 09:07:36;;;;;;;35.28;22.55;;;;;;;3.17;66.04;92896.72;4950721;28;20406;-88
2022/03/05 09:10:10;;;;;;;30.95;20.50;;;;;;;3.26;69.79;92872.03;4952179;28;20047;-88
2022/03/05 09:12:43;;;;;;;30.52;19.55;;;;;;;3.46;64.22;92885.81;4951825;28;20641;-89
2022/03/05 09:15:11;;;;;;;31.20;20.58;;;;;;;3.45;63.87;92876.63;4952264;28;20057;-88
2022/03/05 09:17:42;;;;;;;33.38;20.98;;;;;;;3.21;69.35;92850.50;4958564;28;20497;-88
2022/03/05 09:20:13;;;;;;;34.50;21.63;;;;;;;3.74;65.80;92884.44;4973639;28;20485;-88
2022/03/05 09:22:40;;;;;;;34.88;21.27;;;;;;;4.11;65.76;92879.41;4975055;28;20054;-87
2022/03/05 09:25:09;;;;;;;36.78;22.45;;;;;;;3.97;64.29;92865.75;4975292;28;20418;-89
2022/03/05 09:27:52;;;;;;;;;;;;;;;;;;;;;
2022/03/05 09:30:20;;;;;;;36.72;23.23;;;;;;;4.04;63.35;92874.25;4950898;28;20065;-89
2022/03/05 09:32:59;;;;;;;38.33;23.40;;;;;;;4.15;63.67;92873.00;4960150;28;20055;-94
2022/03/05 09:35:41;;;;;;;34.50;22.08;;;;;;;4.26;65.16;92867.44;4960427;28;20047;-88
2022/03/05 09:38:08;;;;;;;32.72;21.38;;;;;;;4.19;65.01;92825.13;4968546;28;20083;-88
2022/03/05 09:40:35;;;;;;;35.05;22.55;;;;;;;4.74;62.45;92847.56;4974051;28;20046;-89
2022/03/05 09:43:08;;;;;;;38.40;24.83;;;;;;;4.86;61.76;92878.41;4974955;28;20066;-91
2022/03/05 09:45:37;;;;;;;37.83;25.20;;;;;;;4.65;61.39;92867.25;4974339;28;20050;-88
2022/03/05 09:48:08;;;;;;;37.97;24.48;;;;;;;4.50;64.61;92874.94;4973092;28;20061;-88
2022/03/05 09:50:36;;;;;;;36.35;22.52;;;;;;;4.12;62.51;92856.34;4974327;28;20051;-89
2022/03/05 09:53:18;;;;;;;;;;;;;;;;;;;;;
2022/03/05 09:55:46;;;;;;;36.50;22.42;;;;;;;4.27;67.47;92875.88;4956571;29;20047;-89
2022/03/05 09:58:18;;;;;;;36.38;22.92;;;;;;;4.50;67.33;92868.06;4955359;28;20102;-88
2022/03/05 10:00:56;;;;;;;30.77;19.45;;;;;;;3.73;65.78;92840.47;4955254;28;20482;-91
2022/03/05 10:07:28;;;;;;;34.63;21.90;;;;;;;3.68;70.22;92868.16;4822670;29;20548;-93
2022/03/05 10:10:53;;;;;;;34.55;21.20;;;;;;;2.76;69.57;92700.78;4826829;29;20042;-87
2022/03/05 10:13:31;;;;;;;;;;;;;;;4.47;69.79;92865.91;4837232;29;20137;-89
2022/03/05 10:26:23;;;;;;;31.55;19.35;;;;;;;2.74;82.01;92753.41;4845810;29;20063;-91
2022/03/05 10:28:51;;;;;;;26.35;17.27;;;;;;;3.40;83.13;92847.63;4895388;29;20045;-87
2022/03/05 10:31:27;;;;;;;33.13;22.30;;;;;;;3.49;82.12;92844.06;4898058;29;20045;-90
2022/03/05 10:34:00;;;;;;;76.80;44.38;;;;;;;3.24;84.46;92853.69;4952138;28;20408;-94
2022/03/05 10:36:56;;;;;;;24.08;17.63;;;;;;;2.88;85.37;92835.56;4976100;28;20065;-87
2022/03/05 10:39:28;;;;;;;39.97;24.15;;;;;;;3.27;84.48;92816.03;4974013;28;20051;-88
2022/03/05 10:41:59;;;;;;;232.77;152.40;;;;;;;3.22;84.90;92841.16;4974213;28;20449;-91
2022/03/05 10:44:27;;;;;;;74.32;45.38;;;;;;;3.48;85.72;92833.09;4973696;28;20055;-87
2022/03/05 10:46:58;;;;;;;26.42;19.38;;;;;;;3.60;82.22;92847.91;4974949;28;20091;-89
2022/03/05 10:49:43;;;;;;;26.65;18.17;;;;;;;3.82;84.61;92835.28;4974399;28;20094;-89
2022/03/05 10:52:11;;;;;;;143.27;74.18;;;;;;;3.83;79.94;92813.97;4973625;28;20477;-90
2022/03/05 10:54:42;;;;;;;59.42;34.50;;;;;;;4.44;80.11;92832.44;4973804;28;20057;-88
2022/03/05 10:57:21;;;;;;;28.63;18.90;;;;;;;4.49;79.79;92814.88;4974001;28;20047;-95
2022/03/05 10:59:52;;;;;;;28.17;17.05;;;;;;;4.47;80.97;92815.03;4973835;28;20141;-85
2022/03/05 11:02:21;;;;;;;35.60;21.30;;;;;;;4.09;81.59;92821.13;4974190;28;20057;-87
2022/03/05 11:04:49;;;;;;;29.67;17.58;;;;;;;4.14;80.13;92818.84;4973555;28;20047;-88
2022/03/05 11:07:19;;;;;;;30.15;18.83;;;;;;;4.28;81.77;92807.06;4973623;28;20054;-91
2022/03/05 11:10:12;;;;;;;28.33;17.95;;;;;;;4.05;80.63;92809.75;4973484;28;20058;-87
2022/03/05 11:12:40;;;;;;;30.35;19.33;;;;;;;4.13;80.50;92812.16;4973243;28;20148;-87
2022/03/05 11:15:36;;;;;;;23.60;16.33;;;;;;;4.47;79.35;92791.34;4973078;28;20061;-89
2022/03/05 11:18:15;;;;;;;26.42;18.73;;;;;;;4.41;80.85;92796.19;4962778;28;20066;-87
2022/03/05 11:20:42;;;;;;;24.88;17.45;;;;;;;4.08;80.58;92788.25;4954235;29;20130;-87
2022/03/05 11:23:17;;;;;;;22.85;16.85;;;;;;;3.67;82.28;92789.56;4954531;29;20134;-88
2022/03/05 11:25:44;;;;;;;21.52;15.88;;;;;;;3.33;83.60;92774.72;4953753;29;20044;-90
2022/03/05 11:28:19;;;;;;;21.65;17.13;;;;;;;3.34;83.29;92788.22;4954088;29;20055;-88
2022/03/05 11:34:17;;;;;;;26.05;18.67;;;;;;;3.17;83.80;92646.25;4933501;29;20048;-86
2022/03/05 11:36:46;;;;;;;27.17;17.88;;;;;;;4.53;80.63;92762.66;4934401;29;20497;-87
2022/03/05 11:39:15;;;;;;;23.23;15.18;;;;;;;4.03;78.71;92760.81;4934299;29;20055;-87
2022/03/05 11:41:57;;;;;;;24.27;16.08;;;;;;;4.16;80.81;92754.31;4934208;29;20051;-89
2022/03/05 11:44:25;;;;;;;27.17;18.05;;;;;;;4.34;80.00;92741.97;4934531;29;20422;-88
2022/03/05 11:47:25;;;;;;;21.60;15.13;;;;;;;4.05;80.33;92743.66;4935142;29;20082;-89
2022/03/05 11:50:13;;;;;;;23.40;16.13;;;;;;;3.98;80.32;92730.13;4934353;29;20047;-85
2022/03/05 11:53:06;;;;;;;35.35;21.73;;;;;;;4.23;81.34;92752.63;4934962;29;20099;-86
2022/03/05 11:55:35;;;;;;;35.90;22.08;;;;;;;4.09;82.09;92744.88;4934422;29;20154;-88
2022/03/05 11:58:35;;;;;;;26.42;17.00;;;;;;;3.74;82.85;92732.00;4934112;29;20052;-92
2022/03/05 12:01:39;;;;;;;24.45;17.88;;;;;;;3.85;83.64;92740.94;4875462;29;20543;-87